Decoded Metar for LDDU (DUBROVNIK in CROATIA) (IATA:DBV) | Meteo·Mobile Aviation Weather
aviador You're here:

LDDU Decoded Metar

DUBROVNIK in CROATIA
Report Time2019-07-16 00:00:00
UTC Time2019-07-16 00:06:52
Flight Rules vfr VFR
Wind030° at 20 kt
W.Decomp.*RWY 30: 1.0 kt HW 20.0 kt RCW
Visibility9999 m
Phenomena:Light Rain
Clouds:N/A
Expected CloudBase > 3,200 ft AGL from Temp-Dew spread
CeilingNone
Temp21°C (ISA +7)
Dew Point13°C (60% RH)
AAT14.7°C
QNH1008 hPa
Density Alt1,739 ft
Elevation541 ft
Report Wrong Elevation
Raw Report
METAR LDDU 160000Z 03020KT 9999 -RA NSC 21/13 Q1008=

Extra information for LDDU:More info

Metar Taf Metar & Taf Last 4 Metars F.Rules Stats Wind Profile Meteogram Temp Stats Airport Information Weather charts Add Link Nearby VenuesMetar ALERT Operation Metar Decoded Social comments